< Typhoon 199413 1994 Season Typhoon 199415 >
Typhoon 199414 (ELLIE)
General InformationTrack Information on Google MapsDetailed Wind InformationList of All Images || Disaster Info.ResourceGoogle EarthGE AnimationAtom FeedGeoJSON
Detalied Best Track (Time Zone = UTC)
Year Month Day Hour Lat. Long. Pressure (hPa) Wind (kt) Class Image Chart
1994 8 6 00 28.5 146.5 1008 0 2 Image Chart
1994 8 6 06 28.0 146.5 1008 0 2 Image Chart
1994 8 6 12 27.5 146.5 1008 0 2 Image Chart
1994 8 6 18 27.0 146.3 1008 0 2 Image Chart
1994 8 7 00 26.5 146.0 1008 0 2 Image Chart
1994 8 7 06 25.5 145.5 1006 0 2 Image Chart
1994 8 7 12 25.0 145.0 1006 0 2 Image Chart
1994 8 7 18 25.0 145.0 1004 0 2 Image Chart
1994 8 8 00 25.0 144.8 1002 0 2 Image Chart
1994 8 8 06 25.1 143.7 1000 35 3 Image Chart
1994 8 8 12 25.2 142.8 996 40 3 Image Chart
1994 8 8 18 25.2 142.2 992 40 3 Image Chart
1994 8 9 00 24.9 141.6 990 40 3 Image Chart
1994 8 9 06 24.6 140.6 985 45 3 Image Chart
1994 8 9 12 24.4 139.9 985 45 3 Image Chart
1994 8 9 18 24.2 139.1 980 50 4 Image Chart
1994 8 10 00 23.8 138.5 980 50 4 Image Chart
1994 8 10 06 23.3 138.6 980 50 4 Image Chart
1994 8 10 12 23.2 138.9 980 50 4 Image Chart
1994 8 10 18 23.4 139.1 980 50 4 Image Chart
1994 8 11 00 24.0 138.9 975 55 4 Image Chart
1994 8 11 06 25.0 138.4 975 55 4 Image Chart
1994 8 11 12 26.0 137.4 975 55 4 Image Chart
1994 8 11 18 26.7 136.4 975 55 4 Image Chart
1994 8 12 00 27.3 135.3 975 55 4 Image Chart
1994 8 12 06 28.1 134.1 970 65 5 Image Chart
1994 8 12 09 28.4 133.6 970 65 5 Image Chart
1994 8 12 12 28.8 133.0 965 70 5 Image Chart
1994 8 12 15 29.1 132.3 965 70 5 Image Chart
1994 8 12 18 29.4 131.5 965 70 5 Image Chart
1994 8 12 21 29.7 130.8 965 70 5 Image Chart
1994 8 13 00 30.0 130.2 965 70 5 Image Chart
1994 8 13 03 30.3 129.5 965 70 5 Image Chart
1994 8 13 06 30.6 128.9 965 70 5 Image Chart
1994 8 13 09 30.9 128.1 965 70 5 Image Chart
1994 8 13 12 31.2 127.4 965 70 5 Image Chart
1994 8 13 15 31.5 126.6 965 70 5 Image Chart
1994 8 13 18 31.7 125.9 970 65 5 Image Chart
1994 8 14 00 32.2 124.7 970 65 5 Image Chart
1994 8 14 06 32.5 123.6 975 60 4 Image Chart
1994 8 14 12 32.7 122.7 980 55 4 Image Chart
1994 8 14 18 33.1 122.0 985 50 4 Image Chart
1994 8 15 00 34.0 121.9 985 50 4 Image Chart
1994 8 15 06 35.1 121.8 985 50 4 Image Chart
1994 8 15 12 36.1 121.7 985 50 4 Image Chart
1994 8 15 18 37.5 121.6 985 50 4 Image Chart
1994 8 16 00 39.2 122.4 990 45 3 Image Chart
1994 8 16 06 40.6 123.8 994 40 3 Image Chart
1994 8 16 12 42.6 126.6 1000 0 6 Image Chart
1994 8 16 18 46.0 131.0 1002 0 6 Image Chart
1994 8 17 00 48.0 135.0 1000 0 6 Image Chart
1994 8 17 06 51.0 141.0 998 0 6 Image Chart
1994 8 17 12 52.0 145.0 998 0 6 Image Chart
1994 8 17 18 53.5 149.0 996 0 6 Image Chart
1994 8 18 00 54.5 153.0 996 0 6 Image Chart
1994 8 18 06 56.0 155.0 994 0 6 Image Chart
1994 8 18 12 57.0 157.0 998 0 6 Image Chart
1994 8 18 18 58.0 159.0 1002 0 6 Image Chart
1994 8 19 00 60.0 164.0 1004 0 6 Image Chart
1994 8 19 06 62.0 168.0 1004 0 6 Image Chart
1994 8 19 12 63.0 174.0 1004 0 6 Image Chart
1994 8 19 18 69.0 179.0 1004 0 6 Image Chart
Japan Meteorological Agency Best Track Data | Correction Date : 1995-01-30
< Typhoon 199413 1994 Season Typhoon 199415 >

Help